createdAt,value
2018-05-07T03:01:06.421Z,85.24
2018-05-07T03:03:06.683Z,85.05
2018-05-07T03:04:07.643Z,84.39
2018-05-07T03:05:07.336Z,83.91
2018-05-07T03:06:07.259Z,84.01
2018-05-07T03:07:07.523Z,83.91
2018-05-07T03:08:07.701Z,84.20
2018-05-07T03:09:08.011Z,84.10
2018-05-07T03:10:08.439Z,84.10
2018-05-07T03:11:08.619Z,84.10
2018-05-07T03:12:08.333Z,84.39
2018-05-07T03:13:09.100Z,85.24
2018-05-07T03:14:06.738Z,85.72
2018-05-07T03:15:06.495Z,85.34
2018-05-07T03:16:06.716Z,85.72
2018-05-07T03:17:06.921Z,85.34
2018-05-07T03:18:07.050Z,85.62
2018-05-07T03:19:07.090Z,85.05
2018-05-07T03:20:07.338Z,85.34
2018-05-07T03:21:07.400Z,85.05
2018-05-07T03:22:07.827Z,84.58
2018-05-07T03:23:08.354Z,85.34
2018-05-07T03:24:18.618Z,84.86
2018-05-07T03:25:10.518Z,84.48
2018-05-07T03:26:11.347Z,84.10
2018-05-07T03:44:06.105Z,84.82
2018-05-07T03:47:06.934Z,85.20
2018-05-07T03:48:07.338Z,85.11
2018-05-07T03:49:06.986Z,85.77
2018-05-07T03:50:07.357Z,86.72
2018-05-07T03:51:08.100Z,87.10
2018-05-07T03:52:08.393Z,87.19
2018-05-07T03:53:15.717Z,86.82
2018-05-07T04:00:42.809Z,85.20
2018-05-07T04:05:26.202Z,85.58
2018-05-07T04:06:16.591Z,85.58
2018-05-07T04:09:15.482Z,85.86
2018-05-07T04:10:16.622Z,85.49
2018-05-07T04:15:22.692Z,85.49
2018-05-07T04:16:06.970Z,85.30
2018-05-07T04:17:05.301Z,85.49
2018-05-07T04:18:05.210Z,85.39
2018-05-07T04:19:05.691Z,85.01
2018-05-07T04:20:06.635Z,85.58
2018-05-07T04:21:06.420Z,85.20
2018-05-07T04:22:07.419Z,85.20
2018-05-07T04:23:08.388Z,85.20
2018-05-07T04:26:30.624Z,85.39
2018-05-07T04:27:24.517Z,85.86
2018-05-07T04:28:21.556Z,86.05
2018-05-07T04:29:21.588Z,86.05
2018-05-07T04:30:22.513Z,86.05
2018-05-07T04:31:22.385Z,86.15
2018-05-07T04:32:21.937Z,86.34
2018-05-07T04:33:23.586Z,86.63
2018-05-07T04:34:24.052Z,85.96
2018-05-07T04:35:25.638Z,86.24
2018-05-07T04:36:23.183Z,86.15
2018-05-07T04:37:23.113Z,86.24
2018-05-07T04:38:23.522Z,86.15
2018-05-07T04:39:22.565Z,85.96
2018-05-07T04:40:21.622Z,85.96
2018-05-07T04:41:23.109Z,86.43
2018-05-07T04:42:22.138Z,85.39
2018-05-07T04:43:21.915Z,85.96
2018-05-07T04:44:22.329Z,85.68
2018-05-07T04:45:22.339Z,86.05
2018-05-07T04:46:23.490Z,86.15
2018-05-07T04:47:22.820Z,86.24
2018-05-07T04:48:23.596Z,85.77
2018-05-07T04:49:23.736Z,85.96
2018-05-07T04:50:23.480Z,86.24
2018-05-07T04:51:23.340Z,86.72
2018-05-07T04:52:23.808Z,87.01
2018-05-07T04:53:23.589Z,87.48
2018-05-07T04:54:24.744Z,87.57
2018-05-07T04:55:24.369Z,87.05
2018-05-07T04:56:24.507Z,87.14
2018-05-07T04:57:24.343Z,86.29
2018-05-07T04:58:24.613Z,86.38
2018-05-07T04:59:25.634Z,86.19
2018-05-07T05:00:25.270Z,86.19
2018-05-07T05:01:25.230Z,86.29
2018-05-07T05:02:26.059Z,86.47
2018-05-07T05:05:07.796Z,86.10
2018-05-07T05:06:06.876Z,86.29
2018-05-07T05:07:08.807Z,85.81
2018-05-07T05:08:10.681Z,85.43
2018-05-07T05:09:07.075Z,85.53
2018-05-07T05:10:06.715Z,85.24
2018-05-07T05:11:06.855Z,85.24
2018-05-07T05:12:07.044Z,85.72
2018-05-07T05:13:07.161Z,85.91
2018-05-07T05:14:07.321Z,85.34
2018-05-07T05:15:07.474Z,85.24
2018-05-07T05:16:07.632Z,85.43
2018-05-07T05:17:07.754Z,85.34
2018-05-07T05:18:17.882Z,85.95
2018-05-07T05:19:10.241Z,86.43
2018-05-07T05:20:19.305Z,85.86
2018-05-07T05:22:11.095Z,85.57
2018-05-07T05:23:10.899Z,85.19
2018-05-07T05:24:12.408Z,85.19
2018-05-07T05:25:11.300Z,85.10
2018-05-07T05:26:09.180Z,85.28
2018-05-07T05:27:14.187Z,84.72
2018-05-07T05:28:09.491Z,84.56
2018-05-07T05:29:09.629Z,84.76
2018-05-07T05:30:09.917Z,84.19
2018-05-07T05:31:09.887Z,83.90
2018-05-07T05:32:10.317Z,84.00
2018-05-07T05:33:10.786Z,84.38
2018-05-07T05:34:10.281Z,83.85
2018-05-07T05:35:10.449Z,83.56
2018-05-07T05:36:10.638Z,83.18
2018-05-07T05:40:33.527Z,83.09
2018-05-07T05:43:31.173Z,81.56
2018-05-07T05:44:31.470Z,81.89
2018-05-07T05:45:31.930Z,81.89
2018-05-07T05:46:42.409Z,81.23
2018-05-07T05:47:42.530Z,80.84
2018-05-07T05:48:35.974Z,80.55
2018-05-07T05:49:36.461Z,81.13
2018-05-07T05:50:34.539Z,80.27
2018-05-07T05:51:35.457Z,80.69
2018-05-07T05:52:33.372Z,81.46
2018-05-07T05:53:32.837Z,80.31
2018-05-07T05:54:32.960Z,80.88
2018-05-07T06:00:18.317Z,79.97
2018-05-07T06:01:31.486Z,79.88
2018-05-07T06:02:29.952Z,79.88
2018-05-07T06:15:07.273Z,77.00
2018-05-07T06:16:07.815Z,76.62
2018-05-07T06:17:08.241Z,75.66
2018-05-07T06:18:19.997Z,74.99
2018-05-07T06:19:18.683Z,75.28
2018-05-07T06:20:19.305Z,74.84
2018-05-07T06:21:19.022Z,75.22
2018-05-07T06:22:25.040Z,75.42
2018-05-07T06:27:12.054Z,74.40
2018-05-07T06:28:12.723Z,74.40
2018-05-07T06:29:12.684Z,74.69
2018-05-07T06:30:12.619Z,74.49
2018-05-07T06:31:14.046Z,74.49
2018-05-07T06:32:14.682Z,72.97
2018-05-07T06:35:02.540Z,73.00
2018-05-07T06:35:53.803Z,71.28
2018-05-07T06:36:54.443Z,72.24
2018-05-07T06:37:58.236Z,71.47
2018-05-07T06:38:52.704Z,71.03
2018-05-07T06:43:05.713Z,69.50
2018-05-07T06:50:17.073Z,68.80
2018-05-07T06:51:17.226Z,67.85
2018-05-07T06:52:17.037Z,66.61
2018-05-07T06:57:15.784Z,64.95
2018-05-07T06:58:17.211Z,64.76
2018-05-07T06:59:16.060Z,65.42
2018-05-07T07:00:16.203Z,65.14
2018-05-07T07:01:16.340Z,63.13
2018-05-07T07:02:16.647Z,62.84
2018-05-07T07:03:16.806Z,60.16
2018-05-07T07:04:16.915Z,58.81
2018-05-07T07:05:17.662Z,58.91
2018-05-07T07:06:17.290Z,59.48
2018-05-07T07:07:21.026Z,60.16
2018-05-07T07:08:19.601Z,60.67
2018-05-07T07:09:22.163Z,60.19
2018-05-07T07:10:24.573Z,59.71
2018-05-07T07:11:21.264Z,60.03
2018-05-07T07:12:20.067Z,60.12
2018-05-07T07:13:18.452Z,59.74
2018-05-07T07:14:18.581Z,58.59
2018-05-07T07:15:19.912Z,56.96
2018-05-07T07:16:20.400Z,58.01
2018-05-07T07:17:20.865Z,56.57
2018-05-07T07:18:20.384Z,57.92
2018-05-07T07:19:19.501Z,58.52
2018-05-07T07:20:20.761Z,56.51
2018-05-07T07:21:20.793Z,56.41
2018-05-07T07:22:20.874Z,57.95
2018-05-07T07:23:20.428Z,56.51
2018-05-07T07:24:20.687Z,56.60
2018-05-07T07:25:21.348Z,56.24
2018-05-07T07:26:21.622Z,56.82
2018-05-07T07:27:20.895Z,55.86
2018-05-07T07:28:21.097Z,54.61
2018-05-07T07:29:22.539Z,53.27
2018-05-07T07:30:27.693Z,54.23
2018-05-07T07:31:21.580Z,54.90
2018-05-07T07:32:21.855Z,54.93
2018-05-07T07:33:21.915Z,55.51
2018-05-07T07:34:21.989Z,55.22
2018-05-07T07:35:22.278Z,52.43
2018-05-07T07:36:22.571Z,52.14
2018-05-07T07:37:22.669Z,53.49
2018-05-07T07:38:22.783Z,53.30
2018-05-07T07:39:23.023Z,51.95
2018-05-07T07:40:23.211Z,51.31
2018-05-07T07:41:23.312Z,51.98
2018-05-07T07:42:23.452Z,52.36
2018-05-07T07:43:23.727Z,51.31
2018-05-07T07:44:23.848Z,51.31
2018-05-07T07:45:26.001Z,51.98
2018-05-07T07:46:35.477Z,49.77
2018-05-07T07:47:28.929Z,48.81
2018-05-07T07:48:36.461Z,48.71
2018-05-07T07:49:27.106Z,48.93
2018-05-07T07:50:26.950Z,48.83
2018-05-07T07:52:38.282Z,48.97
2018-05-07T07:55:08.993Z,46.21
2018-05-07T07:56:11.203Z,46.33
2018-05-07T07:57:11.533Z,44.71
2018-05-07T07:58:11.637Z,42.52
2018-05-07T07:59:10.654Z,43.41
2018-05-07T08:00:09.731Z,42.46
2018-05-07T08:01:09.906Z,40.72
2018-05-07T08:02:10.027Z,41.03
2018-05-07T08:03:10.236Z,40.38
2018-05-07T08:04:10.408Z,39.62
2018-05-07T08:05:10.566Z,38.97
2018-05-07T08:06:10.767Z,39.26
2018-05-07T08:07:10.888Z,38.87
2018-05-07T08:08:11.088Z,39.18
2018-05-07T08:09:11.209Z,37.82
2018-05-07T08:10:11.420Z,37.54
2018-05-07T08:11:11.583Z,35.97
2018-05-07T08:12:11.787Z,37.34
2018-05-07T08:13:11.897Z,36.66
2018-05-07T08:14:12.037Z,36.98
2018-05-07T08:15:12.178Z,36.60
2018-05-07T08:16:12.317Z,34.55
2018-05-07T08:17:12.526Z,36.30
2018-05-07T08:18:12.693Z,37.26
2018-05-07T08:19:12.857Z,36.51
2018-05-07T08:20:13.027Z,34.38
2018-05-07T08:21:13.205Z,34.78
2018-05-07T08:22:13.388Z,34.59
2018-05-07T08:23:13.540Z,35.66
2018-05-07T08:24:13.671Z,34.77
2018-05-07T08:25:13.847Z,36.14
2018-05-07T08:26:14.022Z,34.88
2018-05-07T08:27:14.162Z,35.07
2018-05-07T08:28:14.350Z,34.02
2018-05-07T08:29:14.518Z,32.37
2018-05-07T08:30:14.616Z,33.25
2018-05-07T08:31:14.930Z,33.54
2018-05-07T08:32:15.050Z,31.32
2018-05-07T08:33:15.199Z,30.34
2018-05-07T08:34:15.384Z,32.00
2018-05-07T08:35:15.630Z,30.55
2018-05-07T08:36:15.718Z,31.60
2018-05-07T08:37:15.830Z,31.62
2018-05-07T08:38:16.057Z,31.05
2018-05-07T08:39:16.240Z,30.76
2018-05-07T08:40:16.391Z,31.35
2018-05-07T08:41:16.575Z,31.32
2018-05-07T08:42:16.670Z,33.18
2018-05-07T08:43:16.973Z,31.94
2018-05-07T08:44:17.063Z,29.41
2018-05-07T08:45:17.233Z,28.54
2018-05-07T08:46:17.383Z,28.04
2018-05-07T08:47:17.524Z,29.68
2018-05-07T08:48:17.731Z,29.76
2018-05-07T08:49:17.826Z,31.23
2018-05-07T08:50:18.091Z,29.66
2018-05-07T08:51:18.221Z,30.54
2018-05-07T08:52:18.383Z,31.20
2018-05-07T08:53:18.670Z,33.70
2018-05-07T08:54:18.734Z,31.67
2018-05-07T08:55:18.888Z,32.23
2018-05-07T08:56:18.997Z,33.63
2018-05-07T08:57:19.297Z,34.02
2018-05-07T08:58:19.378Z,34.89
2018-05-07T08:59:19.665Z,35.58
2018-05-07T09:00:19.736Z,36.74
2018-05-07T09:01:20.013Z,34.71
2018-05-07T09:02:20.071Z,36.53
2018-05-07T09:03:20.231Z,35.95
2018-05-07T09:04:20.421Z,35.57
2018-05-07T09:05:20.617Z,37.21
2018-05-07T09:06:20.775Z,37.60
2018-05-07T09:07:20.928Z,35.94
2018-05-07T09:08:21.147Z,36.03
2018-05-07T09:09:21.267Z,36.22
2018-05-07T09:10:21.463Z,35.26
2018-05-07T09:11:21.601Z,36.90
2018-05-07T09:12:21.775Z,35.82
2018-05-07T09:13:21.979Z,37.46
2018-05-07T09:14:22.095Z,37.37
2018-05-07T09:15:22.352Z,36.79
2018-05-07T09:16:22.500Z,36.69
2018-05-07T09:17:22.651Z,38.23
2018-05-07T09:18:22.784Z,38.62
2018-05-07T09:19:22.959Z,37.27
2018-05-07T09:20:23.084Z,37.58
2018-05-07T09:21:23.266Z,38.06
2018-05-07T09:22:23.478Z,36.92
2018-05-07T09:23:23.583Z,37.88
2018-05-07T09:24:23.815Z,36.84
2018-05-07T09:25:23.914Z,37.05
2018-05-07T09:26:24.130Z,36.49
2018-05-07T09:27:24.231Z,35.44
2018-05-07T09:28:24.436Z,33.70
2018-05-07T09:29:24.565Z,33.62
2018-05-07T09:30:24.844Z,32.46
2018-05-07T09:31:25.035Z,31.59
2018-05-07T09:32:25.101Z,32.28
2018-05-07T09:33:25.218Z,32.18
2018-05-07T09:34:25.451Z,32.02
2018-05-07T09:35:25.568Z,30.08
2018-05-07T09:36:25.835Z,29.88
2018-05-07T09:37:25.887Z,29.32
2018-05-07T09:38:26.101Z,28.44
2018-05-07T09:39:26.269Z,28.17
2018-05-07T09:40:26.400Z,29.54
2018-05-07T09:41:26.538Z,31.70
2018-05-07T09:42:26.875Z,28.39
2018-05-07T09:43:27.026Z,28.00
2018-05-07T09:44:27.136Z,28.69
2018-05-07T09:45:27.458Z,26.76
2018-05-07T09:46:27.580Z,26.94
2018-05-07T09:47:27.756Z,27.43
2018-05-07T09:48:27.939Z,26.57
2018-05-07T09:49:28.086Z,26.19
2018-05-07T09:50:28.345Z,25.62
2018-05-07T09:51:28.412Z,24.94
2018-05-07T09:52:28.615Z,25.80
2018-05-07T09:53:28.819Z,24.44
2018-05-07T09:54:28.928Z,24.93
2018-05-07T09:55:29.178Z,25.52
2018-05-07T09:56:29.247Z,25.81
2018-05-07T09:57:29.496Z,26.01
2018-05-07T09:58:29.612Z,26.59
2018-05-07T09:59:29.761Z,26.98
2018-05-07T10:00:29.968Z,26.59
2018-05-07T10:01:30.158Z,25.34
2018-05-07T10:02:30.317Z,25.03
2018-05-07T10:03:30.490Z,24.87
2018-05-07T10:04:30.680Z,26.63
2018-05-07T10:05:30.754Z,24.18
2018-05-07T10:06:30.977Z,24.67
2018-05-07T10:07:31.147Z,23.79
2018-05-07T10:08:31.290Z,24.28
2018-05-07T10:09:31.582Z,24.78
2018-05-07T10:10:31.684Z,22.81
2018-05-07T10:11:31.817Z,23.97
2018-05-07T10:12:31.981Z,24.00
2018-05-07T10:13:32.143Z,24.10
2018-05-07T10:14:32.399Z,24.77
2018-05-07T10:15:32.572Z,26.43
2018-05-07T10:16:32.735Z,25.08
2018-05-07T10:17:32.854Z,22.75
2018-05-07T10:18:33.069Z,21.98
2018-05-07T10:19:33.190Z,23.05
2018-05-07T10:20:33.395Z,24.22
2018-05-07T10:21:33.570Z,22.27
2018-05-07T10:22:33.767Z,21.59
2018-05-07T10:23:33.941Z,21.29
2018-05-07T10:24:34.059Z,22.46
2018-05-07T10:25:34.279Z,21.30
2018-05-07T10:26:34.383Z,22.27
2018-05-07T10:27:34.597Z,21.68
2018-05-07T10:28:34.718Z,22.86
2018-05-07T10:29:34.973Z,22.66
2018-05-07T10:30:35.086Z,22.97
2018-05-07T10:31:35.360Z,22.59
2018-05-07T10:32:35.490Z,21.62
2018-05-07T10:33:35.651Z,22.22
2018-05-07T10:34:35.850Z,21.63
2018-05-07T10:35:36.067Z,21.34
2018-05-07T10:36:36.238Z,21.63
2018-05-07T10:37:36.403Z,20.56
2018-05-07T10:38:36.528Z,19.86
2018-05-07T10:39:36.696Z,20.75
2018-05-07T10:40:36.816Z,20.15
2018-05-07T10:41:37.102Z,20.74
2018-05-07T10:42:37.257Z,21.53
2018-05-07T10:43:37.399Z,23.59
2018-05-07T10:44:37.570Z,22.81
2018-05-07T10:45:37.752Z,20.73
2018-05-07T10:46:37.941Z,21.51
2018-05-07T10:47:38.129Z,21.91
2018-05-07T10:48:38.314Z,21.99
2018-05-07T10:49:38.497Z,21.50
2018-05-07T10:50:38.664Z,21.41
2018-05-07T10:51:38.861Z,20.33
2018-05-07T10:52:39.055Z,19.85
2018-05-07T10:53:39.221Z,19.86
2018-05-07T10:54:39.362Z,19.67
2018-05-07T10:55:39.565Z,20.23
2018-05-07T10:56:39.746Z,20.62
2018-05-07T10:57:39.895Z,19.65
2018-05-07T10:58:40.064Z,19.85
2018-05-07T10:59:40.277Z,19.47
2018-05-07T11:00:40.432Z,19.87
2018-05-07T11:01:40.587Z,19.56
2018-05-07T11:02:40.694Z,20.34
2018-05-07T11:03:40.877Z,21.33
2018-05-07T11:04:41.072Z,21.61
2018-05-07T11:05:41.188Z,21.51
2018-05-07T11:06:41.412Z,21.22
2018-05-07T11:07:41.615Z,20.53
2018-05-07T11:08:41.745Z,21.32
2018-05-07T11:09:41.983Z,21.20
2018-05-07T11:10:42.177Z,22.37
2018-05-07T11:11:42.350Z,22.87
2018-05-07T11:12:42.463Z,21.61
2018-05-07T11:13:42.663Z,22.50
2018-05-07T11:14:42.855Z,22.00
2018-05-07T11:15:43.006Z,23.79
2018-05-07T11:16:43.153Z,21.74
2018-05-07T11:17:43.316Z,20.07
2018-05-07T11:18:43.499Z,21.03
2018-05-07T11:19:43.756Z,21.23
2018-05-07T11:20:43.849Z,22.51
2018-05-07T11:21:43.995Z,21.25
2018-05-07T11:22:44.179Z,21.55
2018-05-07T11:23:44.334Z,21.62
2018-05-07T11:24:44.589Z,22.11
2018-05-07T11:25:44.675Z,23.49
2018-05-07T11:26:44.863Z,21.53
2018-05-07T11:27:45.086Z,20.66
2018-05-07T11:28:45.241Z,19.98
2018-05-07T11:29:45.461Z,19.89
2018-05-07T11:30:45.600Z,19.80
2018-05-07T11:31:45.747Z,20.57
2018-05-07T11:32:45.931Z,22.16
2018-05-07T11:33:46.163Z,20.18
2018-05-07T11:34:46.290Z,20.18
2018-05-07T11:35:46.461Z,19.99
2018-05-07T11:36:46.662Z,20.57
2018-05-07T11:37:46.825Z,19.59
2018-05-07T11:38:47.039Z,19.59
2018-05-07T11:39:47.133Z,19.79
2018-05-07T11:40:47.283Z,18.81
2018-05-07T11:41:47.537Z,19.59
2018-05-07T11:42:47.743Z,20.37
2018-05-07T11:43:47.892Z,19.49
2018-05-07T11:44:48.006Z,20.57
2018-05-07T11:45:48.229Z,19.40
2018-05-07T11:46:48.381Z,21.06
2018-05-07T11:47:48.585Z,20.56
2018-05-07T11:48:48.752Z,20.49
2018-05-07T11:49:48.902Z,19.02
2018-05-07T11:50:49.035Z,17.65
2018-05-07T11:51:49.259Z,18.52
2018-05-07T11:52:49.462Z,18.91
2018-05-07T11:53:49.631Z,18.81
2018-05-07T11:54:49.816Z,19.68
2018-05-07T11:55:50.003Z,18.90
2018-05-07T11:56:50.150Z,19.78
2018-05-07T11:57:50.307Z,18.60
2018-05-07T11:58:50.525Z,20.66
2018-05-07T11:59:50.687Z,19.78
2018-05-07T12:00:50.874Z,21.08
2018-05-07T12:01:51.087Z,19.49
2018-05-07T12:02:51.268Z,17.84
2018-05-07T12:03:51.427Z,18.05
2018-05-07T12:04:51.571Z,17.74
2018-05-07T12:05:51.762Z,18.33
2018-05-07T12:06:51.938Z,17.94
2018-05-07T12:07:52.104Z,17.65
2018-05-07T12:08:52.268Z,18.24
2018-05-07T12:09:52.488Z,18.74
2018-05-07T12:10:52.652Z,19.53
2018-05-07T12:11:52.753Z,17.96
2018-05-07T12:12:52.986Z,18.84
2018-05-07T12:13:53.170Z,17.66
2018-05-07T12:14:53.277Z,17.77
2018-05-07T12:15:53.501Z,17.46
2018-05-07T12:16:53.653Z,17.26
2018-05-07T12:17:53.824Z,17.35
2018-05-07T12:18:53.969Z,19.71
2018-05-07T12:19:54.238Z,18.44
2018-05-07T12:20:54.352Z,18.74
2018-05-07T12:21:54.549Z,17.66
2018-05-07T12:22:54.709Z,18.84
2018-05-07T12:23:54.888Z,17.27
2018-05-07T12:24:55.030Z,17.77
2018-05-07T12:25:55.216Z,17.29
2018-05-07T12:26:55.375Z,16.30
2018-05-07T12:27:55.592Z,15.61
2018-05-07T12:28:55.801Z,16.40
2018-05-07T12:29:56.010Z,17.29
2018-05-07T12:30:56.213Z,15.72
2018-05-07T12:31:56.354Z,18.57
2018-05-07T12:32:56.491Z,16.52
2018-05-07T12:33:56.654Z,15.92
2018-05-07T12:34:56.808Z,14.92
2018-05-07T12:35:56.983Z,16.39
2018-05-07T12:36:57.122Z,16.78
2018-05-07T12:37:57.339Z,17.85
2018-05-07T12:38:57.481Z,16.67
2018-05-07T12:39:57.725Z,18.63
2018-05-07T12:40:57.833Z,16.28
2018-05-07T12:41:58.088Z,16.20
2018-05-07T12:42:58.268Z,16.28
2018-05-07T12:43:58.410Z,15.89
2018-05-07T12:44:58.645Z,17.28
2018-05-07T12:45:58.791Z,16.59
2018-05-07T12:46:58.981Z,16.50
2018-05-07T12:47:59.189Z,17.29
2018-05-07T12:48:59.420Z,17.98
2018-05-07T12:49:59.478Z,17.19
2018-05-07T12:50:59.688Z,15.91
2018-05-07T12:51:59.822Z,15.52
2018-05-07T12:53:00.030Z,17.19
2018-05-07T12:54:00.159Z,17.49
2018-05-07T12:55:00.406Z,16.01
2018-05-07T12:56:00.541Z,15.22
2018-05-07T12:57:00.744Z,16.21
2018-05-07T12:58:00.868Z,17.00
2018-05-07T12:59:01.149Z,15.72
2018-05-07T13:00:01.237Z,15.14
2018-05-07T13:01:01.372Z,15.72
2018-05-07T13:02:01.633Z,15.53
2018-05-07T13:03:01.802Z,15.03
2018-05-07T13:04:01.893Z,14.94
2018-05-07T13:05:02.173Z,17.38
2018-05-07T13:06:02.362Z,17.49
2018-05-07T13:07:02.470Z,16.20
2018-05-07T13:08:02.663Z,18.48
2018-05-07T13:09:02.791Z,17.19
2018-05-07T13:10:02.991Z,18.77
2018-05-07T13:11:03.200Z,18.18
2018-05-07T13:12:03.349Z,15.92
2018-05-07T13:13:03.644Z,16.02
2018-05-07T13:14:03.675Z,15.34
2018-05-07T13:15:03.847Z,15.34
2018-05-07T13:16:04.056Z,15.25
2018-05-07T13:17:04.334Z,15.93
2018-05-07T13:18:04.408Z,15.84
2018-05-07T13:19:04.584Z,16.05
2018-05-07T13:20:04.835Z,15.45
2018-05-07T13:21:04.997Z,14.87
2018-05-07T13:22:05.166Z,14.94
2018-05-07T13:23:05.359Z,16.52
2018-05-07T13:24:05.480Z,16.02
2018-05-07T13:25:05.676Z,15.63
2018-05-07T13:26:05.869Z,17.30
2018-05-07T13:27:06.060Z,16.52
2018-05-07T13:28:06.255Z,17.40
2018-05-07T13:29:06.341Z,17.40
2018-05-07T13:30:06.528Z,17.21
2018-05-07T13:31:06.787Z,15.25
2018-05-07T13:32:06.930Z,16.43
2018-05-07T13:33:07.157Z,15.15
2018-05-07T13:34:07.239Z,16.52
2018-05-07T13:35:07.507Z,15.73
2018-05-07T13:36:07.679Z,15.93
2018-05-07T13:37:07.830Z,16.24
2018-05-07T13:38:07.958Z,15.95
2018-05-07T13:39:08.238Z,14.67
2018-05-07T13:40:08.352Z,14.85
2018-05-07T13:41:08.590Z,15.33
2018-05-07T13:42:08.791Z,16.22
2018-05-07T13:43:08.915Z,17.30
2018-05-07T13:44:09.061Z,15.05
2018-05-07T13:45:09.301Z,15.25
2018-05-07T13:46:09.500Z,17.21
2018-05-07T13:47:09.727Z,16.73
2018-05-07T13:48:09.847Z,15.23
2018-05-07T13:49:10.054Z,16.02
2018-05-07T13:50:10.172Z,16.41
2018-05-07T13:51:10.418Z,16.21
2018-05-07T13:52:10.491Z,16.90
2018-05-07T13:53:10.782Z,15.44
2018-05-07T13:54:10.899Z,15.42
2018-05-07T13:55:11.025Z,16.40
2018-05-07T13:56:11.230Z,16.51
2018-05-07T13:57:11.344Z,16.52
2018-05-07T13:58:11.604Z,17.79
2018-05-07T13:59:11.765Z,17.08
2018-05-07T14:00:11.934Z,15.99
2018-05-07T14:01:12.151Z,15.12
2018-05-07T14:02:12.352Z,15.61
2018-05-07T14:03:12.536Z,16.09
2018-05-07T14:04:12.681Z,17.88
2018-05-07T14:05:12.912Z,17.79
2018-05-07T14:06:13.066Z,15.22
2018-05-07T14:07:13.193Z,15.80
2018-05-07T14:08:13.409Z,16.31
2018-05-07T14:09:13.583Z,17.29
2018-05-07T14:10:13.762Z,17.16
2018-05-07T14:11:13.980Z,17.96
2018-05-07T14:12:14.156Z,16.97
2018-05-07T14:13:14.260Z,16.28
2018-05-07T14:14:14.455Z,16.28
2018-05-07T14:15:14.697Z,16.00
2018-05-07T14:16:14.886Z,15.80
2018-05-07T14:17:15.020Z,16.39
2018-05-07T14:18:15.139Z,17.17
2018-05-07T14:19:15.395Z,16.39
2018-05-07T14:20:15.580Z,16.78
2018-05-07T14:21:15.731Z,16.98
2018-05-07T14:22:15.899Z,16.39
2018-05-07T14:23:16.066Z,15.60
2018-05-07T14:24:16.289Z,16.38
2018-05-07T14:25:16.441Z,16.58
2018-05-07T14:26:16.698Z,15.70
2018-05-07T14:27:16.759Z,17.68
2018-05-07T14:28:16.971Z,15.63
2018-05-07T14:29:17.181Z,15.34
2018-05-07T14:30:17.269Z,15.72
2018-05-07T14:31:17.477Z,16.30
2018-05-07T14:32:17.701Z,16.00
2018-05-07T14:33:17.878Z,15.92
2018-05-07T14:34:17.993Z,17.28
2018-05-07T14:35:18.222Z,16.38
2018-05-07T14:36:18.399Z,16.19
2018-05-07T14:37:18.633Z,16.18
2018-05-07T14:38:18.776Z,16.28
2018-05-07T14:39:18.899Z,15.61
2018-05-07T14:40:19.083Z,15.51
2018-05-07T14:41:19.258Z,16.49
2018-05-07T14:42:19.494Z,17.18
2018-05-07T14:43:19.604Z,18.16
2018-05-07T14:44:19.751Z,17.66
2018-05-07T14:45:19.954Z,16.69
2018-05-07T14:46:20.155Z,16.20
2018-05-07T14:47:20.367Z,16.30
2018-05-07T14:48:20.620Z,17.97
2018-05-07T14:49:20.796Z,17.97
2018-05-07T14:50:21.004Z,16.71
2018-05-07T14:51:21.075Z,17.98
2018-05-07T14:52:21.286Z,17.79
2018-05-07T14:53:21.535Z,17.18
2018-05-07T14:54:21.693Z,16.67
2018-05-07T14:55:21.829Z,17.55
2018-05-07T14:56:22.017Z,17.26
2018-05-07T14:57:22.222Z,17.83
2018-05-07T14:58:22.366Z,17.93
2018-05-07T14:59:22.538Z,17.34
2018-05-07T15:00:22.720Z,17.35
2018-05-07T15:01:22.874Z,17.24
2018-05-07T15:02:23.113Z,17.15
2018-05-07T15:03:23.244Z,17.35
2018-05-07T15:04:23.407Z,17.55
2018-05-07T15:05:23.561Z,17.25
2018-05-07T15:06:23.769Z,17.65
2018-05-07T15:07:23.939Z,17.36
2018-05-07T15:08:24.153Z,16.97
2018-05-07T15:09:24.319Z,17.75
2018-05-07T15:10:24.458Z,18.44
2018-05-07T15:11:25.383Z,17.46
2018-05-07T15:12:24.829Z,17.27
2018-05-07T15:13:24.941Z,17.93
2018-05-07T15:14:25.192Z,17.63
2018-05-07T15:15:25.359Z,17.35
2018-05-07T15:16:25.518Z,17.15
2018-05-07T15:17:25.746Z,17.83
2018-05-07T15:18:25.875Z,17.72
2018-05-07T15:19:25.991Z,17.63
2018-05-07T15:20:26.202Z,18.52
2018-05-07T15:21:26.335Z,17.72
2018-05-07T15:22:26.581Z,17.82
2018-05-07T15:23:26.767Z,17.92
2018-05-07T15:24:26.920Z,17.82
2018-05-07T15:25:27.163Z,17.63
2018-05-07T15:26:27.353Z,18.12
2018-05-07T15:27:27.509Z,18.68
2018-05-07T15:28:27.693Z,18.50
2018-05-07T15:29:27.909Z,19.38
2018-05-07T15:30:28.066Z,19.27
2018-05-07T15:31:28.206Z,19.37
2018-05-07T15:32:28.416Z,19.27
2018-05-07T15:33:28.558Z,18.59
2018-05-07T15:34:28.778Z,18.59
2018-05-07T15:35:28.985Z,18.19
2018-05-07T15:36:29.071Z,19.67
2018-05-07T15:37:29.275Z,18.29
2018-05-07T15:38:29.472Z,19.36
2018-05-07T15:39:29.594Z,18.96
2018-05-07T15:40:29.774Z,19.34
2018-05-07T15:41:29.978Z,19.84
2018-05-07T15:42:30.164Z,20.62
2018-05-07T15:43:30.368Z,20.82
2018-05-07T15:44:30.517Z,19.83
2018-05-07T15:45:30.620Z,21.31
2018-05-07T15:46:30.866Z,19.55
2018-05-07T15:47:31.093Z,20.14
2018-05-07T15:48:31.209Z,20.03
2018-05-07T15:49:31.422Z,19.73
2018-05-07T15:50:31.571Z,19.34
2018-05-07T15:51:31.787Z,21.39
2018-05-07T15:52:31.949Z,21.67
2018-05-07T15:53:32.082Z,21.36
2018-05-07T15:54:32.258Z,21.95
2018-05-07T15:55:32.473Z,21.45
2018-05-07T15:56:32.592Z,21.56
2018-05-07T15:57:32.767Z,21.28
2018-05-07T15:58:32.974Z,21.18
2018-05-07T15:59:33.156Z,21.37
2018-05-07T16:00:33.340Z,22.84
2018-05-07T16:01:33.474Z,22.75
2018-05-07T16:02:33.779Z,21.47
2018-05-07T16:03:33.882Z,21.39
2018-05-07T16:04:34.080Z,20.87
2018-05-07T16:05:34.257Z,22.14
2018-05-07T16:06:34.399Z,22.72
2018-05-07T16:07:34.526Z,22.31
2018-05-07T16:08:34.769Z,22.21
2018-05-07T16:09:34.894Z,22.23
2018-05-07T16:10:35.072Z,22.22
2018-05-07T16:11:35.211Z,23.28
2018-05-07T16:12:35.415Z,23.19
2018-05-07T16:13:35.576Z,23.58
2018-05-07T16:14:35.745Z,24.07
2018-05-07T16:15:35.959Z,23.39
2018-05-07T16:16:36.098Z,23.77
2018-05-07T16:17:36.265Z,22.78
2018-05-07T16:18:36.433Z,23.07
2018-05-07T16:19:36.675Z,23.28
2018-05-07T16:20:36.733Z,23.46
2018-05-07T16:21:36.989Z,24.04
2018-05-07T16:22:37.129Z,24.22
2018-05-07T16:23:37.301Z,26.08
2018-05-07T16:24:37.417Z,25.78
2018-05-07T16:25:37.653Z,26.06
2018-05-07T16:26:37.858Z,26.34
2018-05-07T16:27:37.994Z,27.50
2018-05-07T16:28:38.206Z,27.58
2018-05-07T16:29:38.348Z,28.26
2018-05-07T16:30:38.519Z,28.17
2018-05-07T16:31:38.674Z,27.39
2018-05-07T16:32:38.873Z,28.34
2018-05-07T16:33:39.055Z,28.34
2018-05-07T16:34:39.227Z,29.41
2018-05-07T16:35:39.354Z,29.11
2018-05-07T16:36:39.579Z,28.23
2018-05-07T16:37:39.653Z,28.70
2018-05-07T16:38:39.896Z,29.38
2018-05-07T16:39:40.072Z,29.48
2018-05-07T16:40:40.159Z,29.11
2018-05-07T16:41:40.362Z,29.19
2018-05-07T16:42:40.628Z,29.38
2018-05-07T16:43:40.752Z,30.55
2018-05-07T16:44:40.839Z,31.32
2018-05-07T16:45:41.105Z,29.95
2018-05-07T16:46:41.273Z,31.21
2018-05-07T16:47:41.475Z,32.94
2018-05-07T16:48:41.776Z,31.59
2018-05-07T16:49:41.779Z,31.76
2018-05-07T16:50:41.983Z,32.15
2018-05-07T16:51:42.171Z,31.28
2018-05-07T16:52:42.373Z,31.26
2018-05-07T16:53:42.480Z,32.21
2018-05-07T16:54:42.710Z,33.37
2018-05-07T16:55:42.829Z,33.09
2018-05-07T16:56:42.996Z,33.57
2018-05-07T16:57:43.221Z,34.05
2018-05-07T16:58:43.360Z,35.21
2018-05-07T16:59:43.525Z,33.76
2018-05-07T17:00:43.703Z,33.57
2018-05-07T17:01:43.870Z,33.95
2018-05-07T17:02:44.046Z,34.15
2018-05-07T17:03:44.256Z,33.18
2018-05-07T17:04:44.375Z,32.29
2018-05-07T17:05:44.544Z,32.21
2018-05-07T17:06:44.777Z,32.20
2018-05-07T17:07:44.925Z,32.97
2018-05-07T17:08:45.083Z,32.29
2018-05-07T17:09:45.252Z,33.17
2018-05-07T17:10:45.474Z,32.38
2018-05-07T17:11:45.615Z,33.25
2018-05-07T17:12:45.807Z,33.45
2018-05-07T17:13:45.963Z,34.60
2018-05-07T17:14:46.129Z,35.00
2018-05-07T17:15:46.251Z,34.52
2018-05-07T17:16:46.425Z,34.23
2018-05-07T17:17:46.596Z,33.63
2018-05-07T17:18:46.771Z,34.12
2018-05-07T17:19:46.980Z,33.83